sensor_id;sensor_type;location;lat;lon;timestamp;P1;durP1;ratioP1;P2;durP2;ratioP2
19812;SDS011;10066;48.108;11.448;2022-07-29T00:01:43;1.03;;;0.93;;
19812;SDS011;10066;48.108;11.448;2022-07-29T00:04:10;1.87;;;1.00;;
19812;SDS011;10066;48.108;11.448;2022-07-29T00:06:37;1.17;;;0.90;;
19812;SDS011;10066;48.108;11.448;2022-07-29T00:09:06;1.03;;;0.87;;
19812;SDS011;10066;48.108;11.448;2022-07-29T00:11:33;1.63;;;0.97;;
19812;SDS011;10066;48.108;11.448;2022-07-29T00:14:00;2.23;;;1.03;;
19812;SDS011;10066;48.108;11.448;2022-07-29T00:16:27;1.10;;;0.90;;
19812;SDS011;10066;48.108;11.448;2022-07-29T00:18:55;1.53;;;1.10;;
19812;SDS011;10066;48.108;11.448;2022-07-29T00:21:22;1.13;;;1.00;;
19812;SDS011;10066;48.108;11.448;2022-07-29T00:23:49;1.30;;;1.20;;
19812;SDS011;10066;48.108;11.448;2022-07-29T00:26:17;1.07;;;0.97;;
19812;SDS011;10066;48.108;11.448;2022-07-29T00:28:44;1.63;;;1.20;;
19812;SDS011;10066;48.108;11.448;2022-07-29T00:31:12;1.40;;;1.10;;
19812;SDS011;10066;48.108;11.448;2022-07-29T00:33:40;1.17;;;1.00;;
19812;SDS011;10066;48.108;11.448;2022-07-29T00:36:07;1.60;;;1.10;;
19812;SDS011;10066;48.108;11.448;2022-07-29T00:38:33;1.47;;;1.00;;
19812;SDS011;10066;48.108;11.448;2022-07-29T00:41:00;1.10;;;1.00;;
19812;SDS011;10066;48.108;11.448;2022-07-29T00:43:29;2.43;;;0.97;;
19812;SDS011;10066;48.108;11.448;2022-07-29T00:45:55;1.13;;;1.00;;
19812;SDS011;10066;48.108;11.448;2022-07-29T00:48:22;1.53;;;1.10;;
19812;SDS011;10066;48.108;11.448;2022-07-29T00:50:49;1.50;;;1.00;;
19812;SDS011;10066;48.108;11.448;2022-07-29T00:53:17;1.07;;;0.97;;
19812;SDS011;10066;48.108;11.448;2022-07-29T00:55:45;1.90;;;1.10;;
19812;SDS011;10066;48.108;11.448;2022-07-29T00:58:12;1.17;;;1.07;;
19812;SDS011;10066;48.108;11.448;2022-07-29T01:00:41;3.23;;;1.20;;
19812;SDS011;10066;48.108;11.448;2022-07-29T01:03:08;3.67;;;1.10;;
19812;SDS011;10066;48.108;11.448;2022-07-29T01:05:35;1.43;;;1.07;;
19812;SDS011;10066;48.108;11.448;2022-07-29T01:08:03;1.60;;;1.20;;
19812;SDS011;10066;48.108;11.448;2022-07-29T01:10:31;1.10;;;1.00;;
19812;SDS011;10066;48.108;11.448;2022-07-29T01:12:59;1.97;;;1.30;;
19812;SDS011;10066;48.108;11.448;2022-07-29T01:15:27;2.33;;;1.10;;
19812;SDS011;10066;48.108;11.448;2022-07-29T01:17:59;1.63;;;1.20;;
19812;SDS011;10066;48.108;11.448;2022-07-29T01:20:38;2.20;;;1.30;;
19812;SDS011;10066;48.108;11.448;2022-07-29T01:23:28;1.30;;;1.10;;
19812;SDS011;10066;48.108;11.448;2022-07-29T01:26:23;1.57;;;1.13;;
19812;SDS011;10066;48.108;11.448;2022-07-29T01:29:00;1.43;;;1.00;;
19812;SDS011;10066;48.108;11.448;2022-07-29T01:31:31;1.20;;;1.10;;
19812;SDS011;10066;48.108;11.448;2022-07-29T01:34:05;1.10;;;1.00;;
19812;SDS011;10066;48.108;11.448;2022-07-29T01:36:35;1.37;;;1.10;;
19812;SDS011;10066;48.108;11.448;2022-07-29T01:39:08;1.53;;;1.23;;
19812;SDS011;10066;48.108;11.448;2022-07-29T01:41:38;2.77;;;1.07;;
19812;SDS011;10066;48.108;11.448;2022-07-29T01:44:18;2.77;;;1.37;;
19812;SDS011;10066;48.108;11.448;2022-07-29T01:46:49;2.87;;;1.00;;
19812;SDS011;10066;48.108;11.448;2022-07-29T01:49:24;0.90;;;0.90;;
19812;SDS011;10066;48.108;11.448;2022-07-29T01:51:54;1.10;;;0.97;;
19812;SDS011;10066;48.108;11.448;2022-07-29T01:54:28;1.10;;;1.00;;
19812;SDS011;10066;48.108;11.448;2022-07-29T01:57:00;1.60;;;0.90;;
19812;SDS011;10066;48.108;11.448;2022-07-29T01:59:31;2.00;;;1.00;;
19812;SDS011;10066;48.108;11.448;2022-07-29T02:04:37;1.83;;;1.10;;
19812;SDS011;10066;48.108;11.448;2022-07-29T02:07:05;1.10;;;1.00;;
19812;SDS011;10066;48.108;11.448;2022-07-29T02:09:36;1.47;;;1.00;;
19812;SDS011;10066;48.108;11.448;2022-07-29T02:12:06;1.00;;;0.90;;
19812;SDS011;10066;48.108;11.448;2022-07-29T02:14:36;1.83;;;1.20;;
19812;SDS011;10066;48.108;11.448;2022-07-29T02:17:05;1.00;;;0.90;;
19812;SDS011;10066;48.108;11.448;2022-07-29T02:19:32;2.03;;;0.90;;
19812;SDS011;10066;48.108;11.448;2022-07-29T02:22:00;1.13;;;0.97;;
19812;SDS011;10066;48.108;11.448;2022-07-29T02:24:28;1.10;;;1.00;;
19812;SDS011;10066;48.108;11.448;2022-07-29T02:26:56;1.00;;;0.90;;
19812;SDS011;10066;48.108;11.448;2022-07-29T02:29:26;2.20;;;1.20;;
19812;SDS011;10066;48.108;11.448;2022-07-29T02:31:57;0.87;;;0.80;;
19812;SDS011;10066;48.108;11.448;2022-07-29T02:34:25;1.90;;;0.80;;
19812;SDS011;10066;48.108;11.448;2022-07-29T02:36:54;1.00;;;0.90;;
19812;SDS011;10066;48.108;11.448;2022-07-29T02:39:22;0.90;;;0.80;;
19812;SDS011;10066;48.108;11.448;2022-07-29T02:41:51;0.80;;;0.80;;
19812;SDS011;10066;48.108;11.448;2022-07-29T02:44:24;0.90;;;0.90;;
19812;SDS011;10066;48.108;11.448;2022-07-29T02:46:53;1.33;;;0.90;;
19812;SDS011;10066;48.108;11.448;2022-07-29T02:49:29;1.30;;;0.90;;
19812;SDS011;10066;48.108;11.448;2022-07-29T02:52:01;1.13;;;0.90;;
19812;SDS011;10066;48.108;11.448;2022-07-29T02:54:31;1.93;;;0.73;;
19812;SDS011;10066;48.108;11.448;2022-07-29T02:57:14;0.80;;;0.80;;
19812;SDS011;10066;48.108;11.448;2022-07-29T02:59:47;1.43;;;0.83;;
19812;SDS011;10066;48.108;11.448;2022-07-29T03:02:19;1.37;;;0.90;;
19812;SDS011;10066;48.108;11.448;2022-07-29T03:04:47;1.00;;;0.90;;
19812;SDS011;10066;48.108;11.448;2022-07-29T03:07:17;1.63;;;0.80;;
19812;SDS011;10066;48.108;11.448;2022-07-29T03:09:45;1.00;;;0.90;;
19812;SDS011;10066;48.108;11.448;2022-07-29T03:12:13;1.10;;;1.00;;
19812;SDS011;10066;48.108;11.448;2022-07-29T03:14:41;1.00;;;0.90;;
19812;SDS011;10066;48.108;11.448;2022-07-29T03:17:09;1.10;;;0.77;;
19812;SDS011;10066;48.108;11.448;2022-07-29T03:19:38;1.10;;;1.00;;
19812;SDS011;10066;48.108;11.448;2022-07-29T03:22:06;1.27;;;1.10;;
19812;SDS011;10066;48.108;11.448;2022-07-29T03:24:34;0.77;;;0.73;;
19812;SDS011;10066;48.108;11.448;2022-07-29T03:27:02;2.13;;;1.20;;
19812;SDS011;10066;48.108;11.448;2022-07-29T03:29:30;1.20;;;1.07;;
19812;SDS011;10066;48.108;11.448;2022-07-29T03:31:57;0.83;;;0.80;;
19812;SDS011;10066;48.108;11.448;2022-07-29T03:34:24;1.63;;;1.10;;
19812;SDS011;10066;48.108;11.448;2022-07-29T03:36:52;1.27;;;1.10;;
19812;SDS011;10066;48.108;11.448;2022-07-29T03:39:20;1.33;;;1.00;;
19812;SDS011;10066;48.108;11.448;2022-07-29T03:41:49;1.20;;;1.10;;
19812;SDS011;10066;48.108;11.448;2022-07-29T03:44:19;1.17;;;1.00;;
19812;SDS011;10066;48.108;11.448;2022-07-29T03:46:48;1.50;;;1.00;;
19812;SDS011;10066;48.108;11.448;2022-07-29T03:49:18;1.53;;;1.20;;
19812;SDS011;10066;48.108;11.448;2022-07-29T03:51:47;1.17;;;1.07;;
19812;SDS011;10066;48.108;11.448;2022-07-29T03:54:15;1.73;;;1.10;;
19812;SDS011;10066;48.108;11.448;2022-07-29T03:56:43;1.70;;;1.10;;
19812;SDS011;10066;48.108;11.448;2022-07-29T03:59:12;1.37;;;1.00;;
19812;SDS011;10066;48.108;11.448;2022-07-29T04:01:41;1.77;;;1.10;;
19812;SDS011;10066;48.108;11.448;2022-07-29T04:04:09;1.23;;;1.13;;
19812;SDS011;10066;48.108;11.448;2022-07-29T04:06:37;1.27;;;1.03;;
19812;SDS011;10066;48.108;11.448;2022-07-29T04:09:05;1.87;;;1.30;;
19812;SDS011;10066;48.108;11.448;2022-07-29T04:11:34;1.27;;;1.10;;
19812;SDS011;10066;48.108;11.448;2022-07-29T04:14:03;1.80;;;1.43;;
19812;SDS011;10066;48.108;11.448;2022-07-29T04:16:30;2.17;;;1.40;;
19812;SDS011;10066;48.108;11.448;2022-07-29T04:18:57;2.13;;;1.40;;
19812;SDS011;10066;48.108;11.448;2022-07-29T04:21:24;2.43;;;1.37;;
19812;SDS011;10066;48.108;11.448;2022-07-29T04:23:51;2.20;;;1.47;;
19812;SDS011;10066;48.108;11.448;2022-07-29T04:26:18;1.40;;;1.10;;
19812;SDS011;10066;48.108;11.448;2022-07-29T04:28:47;2.43;;;1.30;;
19812;SDS011;10066;48.108;11.448;2022-07-29T04:31:14;2.27;;;1.47;;
19812;SDS011;10066;48.108;11.448;2022-07-29T04:33:40;1.90;;;1.53;;
19812;SDS011;10066;48.108;11.448;2022-07-29T04:36:07;2.33;;;1.20;;
19812;SDS011;10066;48.108;11.448;2022-07-29T04:38:36;1.80;;;1.40;;
19812;SDS011;10066;48.108;11.448;2022-07-29T04:41:04;2.73;;;1.50;;
19812;SDS011;10066;48.108;11.448;2022-07-29T04:43:31;2.30;;;1.57;;
19812;SDS011;10066;48.108;11.448;2022-07-29T04:46:00;2.40;;;1.20;;
19812;SDS011;10066;48.108;11.448;2022-07-29T04:48:28;3.33;;;1.27;;
19812;SDS011;10066;48.108;11.448;2022-07-29T04:50:55;2.20;;;1.40;;
19812;SDS011;10066;48.108;11.448;2022-07-29T04:53:22;1.60;;;1.40;;
19812;SDS011;10066;48.108;11.448;2022-07-29T04:55:49;2.80;;;1.20;;
19812;SDS011;10066;48.108;11.448;2022-07-29T04:58:16;2.63;;;1.40;;
19812;SDS011;10066;48.108;11.448;2022-07-29T05:00:43;3.83;;;1.47;;
19812;SDS011;10066;48.108;11.448;2022-07-29T05:03:12;2.17;;;1.20;;
19812;SDS011;10066;48.108;11.448;2022-07-29T05:05:38;1.60;;;1.17;;
19812;SDS011;10066;48.108;11.448;2022-07-29T05:08:06;1.70;;;1.10;;
19812;SDS011;10066;48.108;11.448;2022-07-29T05:10:33;2.90;;;1.20;;
19812;SDS011;10066;48.108;11.448;2022-07-29T05:13:03;2.43;;;1.13;;
19812;SDS011;10066;48.108;11.448;2022-07-29T05:15:30;2.30;;;1.00;;
19812;SDS011;10066;48.108;11.448;2022-07-29T05:17:57;1.57;;;1.10;;
19812;SDS011;10066;48.108;11.448;2022-07-29T05:20:26;3.70;;;1.87;;
19812;SDS011;10066;48.108;11.448;2022-07-29T05:22:53;2.70;;;1.20;;
19812;SDS011;10066;48.108;11.448;2022-07-29T05:25:20;3.67;;;1.50;;
19812;SDS011;10066;48.108;11.448;2022-07-29T05:27:47;4.30;;;1.30;;
19812;SDS011;10066;48.108;11.448;2022-07-29T05:30:14;7.27;;;1.60;;
19812;SDS011;10066;48.108;11.448;2022-07-29T05:32:41;2.53;;;1.00;;
19812;SDS011;10066;48.108;11.448;2022-07-29T05:35:08;1.57;;;1.20;;
19812;SDS011;10066;48.108;11.448;2022-07-29T05:37:36;2.87;;;1.40;;
19812;SDS011;10066;48.108;11.448;2022-07-29T05:40:04;1.70;;;1.10;;
19812;SDS011;10066;48.108;11.448;2022-07-29T05:42:31;2.30;;;1.20;;
19812;SDS011;10066;48.108;11.448;2022-07-29T05:44:59;1.73;;;1.23;;
19812;SDS011;10066;48.108;11.448;2022-07-29T05:47:26;2.37;;;1.20;;
19812;SDS011;10066;48.108;11.448;2022-07-29T05:49:52;2.37;;;1.20;;
19812;SDS011;10066;48.108;11.448;2022-07-29T05:52:20;1.47;;;1.00;;
19812;SDS011;10066;48.108;11.448;2022-07-29T05:54:48;1.50;;;1.10;;
19812;SDS011;10066;48.108;11.448;2022-07-29T05:57:16;1.47;;;1.37;;
19812;SDS011;10066;48.108;11.448;2022-07-29T05:59:44;2.60;;;1.33;;
19812;SDS011;10066;48.108;11.448;2022-07-29T06:02:12;3.30;;;1.20;;
19812;SDS011;10066;48.108;11.448;2022-07-29T06:04:39;1.23;;;1.00;;
19812;SDS011;10066;48.108;11.448;2022-07-29T06:07:06;1.63;;;1.20;;
19812;SDS011;10066;48.108;11.448;2022-07-29T06:09:33;1.50;;;1.10;;
19812;SDS011;10066;48.108;11.448;2022-07-29T06:12:02;1.93;;;1.07;;
19812;SDS011;10066;48.108;11.448;2022-07-29T06:14:30;2.77;;;1.10;;
19812;SDS011;10066;48.108;11.448;2022-07-29T06:16:57;1.23;;;1.03;;
19812;SDS011;10066;48.108;11.448;2022-07-29T06:19:25;1.20;;;1.10;;
19812;SDS011;10066;48.108;11.448;2022-07-29T06:21:52;1.67;;;1.00;;
19812;SDS011;10066;48.108;11.448;2022-07-29T06:24:19;3.07;;;1.30;;
19812;SDS011;10066;48.108;11.448;2022-07-29T06:26:46;2.00;;;1.30;;
19812;SDS011;10066;48.108;11.448;2022-07-29T06:29:14;1.30;;;1.20;;
19812;SDS011;10066;48.108;11.448;2022-07-29T06:31:42;1.57;;;1.17;;
19812;SDS011;10066;48.108;11.448;2022-07-29T06:34:08;2.40;;;1.17;;
19812;SDS011;10066;48.108;11.448;2022-07-29T06:36:35;1.57;;;1.10;;
19812;SDS011;10066;48.108;11.448;2022-07-29T06:39:04;1.97;;;1.10;;
19812;SDS011;10066;48.108;11.448;2022-07-29T06:41:32;1.27;;;1.17;;
19812;SDS011;10066;48.108;11.448;2022-07-29T06:43:59;1.97;;;1.30;;
19812;SDS011;10066;48.108;11.448;2022-07-29T06:46:28;1.67;;;1.10;;
19812;SDS011;10066;48.108;11.448;2022-07-29T06:48:54;4.53;;;1.35;;
19812;SDS011;10066;48.108;11.448;2022-07-29T06:51:21;2.08;;;1.25;;
19812;SDS011;10066;48.108;11.448;2022-07-29T06:53:49;1.58;;;1.20;;
19812;SDS011;10066;48.108;11.448;2022-07-29T06:56:16;4.05;;;1.30;;
19812;SDS011;10066;48.108;11.448;2022-07-29T06:58:43;1.65;;;1.40;;
19812;SDS011;10066;48.108;11.448;2022-07-29T07:01:10;2.58;;;1.10;;
19812;SDS011;10066;48.108;11.448;2022-07-29T07:03:38;3.17;;;1.00;;
19812;SDS011;10066;48.108;11.448;2022-07-29T07:06:06;2.87;;;1.07;;
19812;SDS011;10066;48.108;11.448;2022-07-29T07:08:34;1.60;;;1.17;;
19812;SDS011;10066;48.108;11.448;2022-07-29T07:11:01;1.33;;;1.00;;
19812;SDS011;10066;48.108;11.448;2022-07-29T07:13:29;1.23;;;1.13;;
19812;SDS011;10066;48.108;11.448;2022-07-29T07:15:59;3.17;;;1.17;;
19812;SDS011;10066;48.108;11.448;2022-07-29T07:18:26;2.67;;;1.00;;
19812;SDS011;10066;48.108;11.448;2022-07-29T07:20:55;1.27;;;1.00;;
19812;SDS011;10066;48.108;11.448;2022-07-29T07:23:22;1.07;;;0.97;;
19812;SDS011;10066;48.108;11.448;2022-07-29T07:25:49;3.23;;;1.40;;
19812;SDS011;10066;48.108;11.448;2022-07-29T07:28:17;1.73;;;1.13;;
19812;SDS011;10066;48.108;11.448;2022-07-29T07:30:44;5.93;;;1.30;;
19812;SDS011;10066;48.108;11.448;2022-07-29T07:33:12;1.47;;;1.00;;
19812;SDS011;10066;48.108;11.448;2022-07-29T07:35:39;1.60;;;1.00;;
19812;SDS011;10066;48.108;11.448;2022-07-29T07:38:14;1.60;;;0.93;;
19812;SDS011;10066;48.108;11.448;2022-07-29T07:40:52;2.37;;;1.30;;
19812;SDS011;10066;48.108;11.448;2022-07-29T07:43:19;1.97;;;1.20;;
19812;SDS011;10066;48.108;11.448;2022-07-29T07:45:47;1.57;;;1.00;;
19812;SDS011;10066;48.108;11.448;2022-07-29T07:48:14;1.87;;;1.23;;
19812;SDS011;10066;48.108;11.448;2022-07-29T07:50:41;2.57;;;1.30;;
19812;SDS011;10066;48.108;11.448;2022-07-29T07:53:10;1.63;;;1.10;;
19812;SDS011;10066;48.108;11.448;2022-07-29T07:55:39;0.97;;;0.97;;
19812;SDS011;10066;48.108;11.448;2022-07-29T07:58:06;2.10;;;1.33;;
19812;SDS011;10066;48.108;11.448;2022-07-29T08:00:33;2.80;;;1.10;;
19812;SDS011;10066;48.108;11.448;2022-07-29T08:03:00;1.50;;;1.30;;
19812;SDS011;10066;48.108;11.448;2022-07-29T08:05:27;2.60;;;1.17;;
19812;SDS011;10066;48.108;11.448;2022-07-29T08:07:54;1.87;;;1.20;;
19812;SDS011;10066;48.108;11.448;2022-07-29T08:10:23;1.83;;;1.10;;
19812;SDS011;10066;48.108;11.448;2022-07-29T08:13:08;4.10;;;1.30;;
19812;SDS011;10066;48.108;11.448;2022-07-29T08:15:38;2.47;;;1.10;;
19812;SDS011;10066;48.108;11.448;2022-07-29T08:18:05;2.80;;;1.20;;
19812;SDS011;10066;48.108;11.448;2022-07-29T08:20:32;1.97;;;1.20;;
19812;SDS011;10066;48.108;11.448;2022-07-29T08:23:00;2.87;;;1.20;;
19812;SDS011;10066;48.108;11.448;2022-07-29T08:25:28;2.57;;;1.10;;
19812;SDS011;10066;48.108;11.448;2022-07-29T08:27:56;4.07;;;1.13;;
19812;SDS011;10066;48.108;11.448;2022-07-29T08:30:23;1.73;;;1.20;;
19812;SDS011;10066;48.108;11.448;2022-07-29T08:32:50;1.47;;;1.00;;
19812;SDS011;10066;48.108;11.448;2022-07-29T08:35:18;2.80;;;1.10;;
19812;SDS011;10066;48.108;11.448;2022-07-29T08:37:45;2.57;;;1.17;;
19812;SDS011;10066;48.108;11.448;2022-07-29T08:40:14;2.43;;;1.07;;
19812;SDS011;10066;48.108;11.448;2022-07-29T08:42:43;5.53;;;1.20;;
19812;SDS011;10066;48.108;11.448;2022-07-29T08:45:10;1.83;;;1.10;;
19812;SDS011;10066;48.108;11.448;2022-07-29T08:47:38;4.13;;;1.20;;
19812;SDS011;10066;48.108;11.448;2022-07-29T08:50:06;3.20;;;1.30;;
19812;SDS011;10066;48.108;11.448;2022-07-29T08:52:35;1.80;;;1.40;;
19812;SDS011;10066;48.108;11.448;2022-07-29T08:55:04;1.70;;;1.30;;
19812;SDS011;10066;48.108;11.448;2022-07-29T08:57:32;5.30;;;1.53;;
19812;SDS011;10066;48.108;11.448;2022-07-29T09:00:03;2.92;;;1.23;;
19812;SDS011;10066;48.108;11.448;2022-07-29T09:02:35;2.00;;;1.13;;
19812;SDS011;10066;48.108;11.448;2022-07-29T09:05:07;2.10;;;1.30;;
19812;SDS011;10066;48.108;11.448;2022-07-29T09:07:34;3.00;;;1.47;;
19812;SDS011;10066;48.108;11.448;2022-07-29T09:10:03;1.90;;;1.30;;
19812;SDS011;10066;48.108;11.448;2022-07-29T09:12:31;1.93;;;1.70;;
19812;SDS011;10066;48.108;11.448;2022-07-29T09:14:58;2.20;;;1.40;;
19812;SDS011;10066;48.108;11.448;2022-07-29T09:17:43;2.03;;;1.38;;
19812;SDS011;10066;48.108;11.448;2022-07-29T09:20:12;2.65;;;1.40;;
19812;SDS011;10066;48.108;11.448;2022-07-29T09:22:42;4.53;;;1.80;;
19812;SDS011;10066;48.108;11.448;2022-07-29T09:25:12;4.07;;;1.38;;
19812;SDS011;10066;48.108;11.448;2022-07-29T09:27:42;2.17;;;1.50;;
19812;SDS011;10066;48.108;11.448;2022-07-29T09:30:18;2.83;;;1.40;;
19812;SDS011;10066;48.108;11.448;2022-07-29T09:32:58;2.35;;;1.80;;
19812;SDS011;10066;48.108;11.448;2022-07-29T09:35:26;3.43;;;1.60;;
19812;SDS011;10066;48.108;11.448;2022-07-29T09:37:54;24.43;;;3.87;;
19812;SDS011;10066;48.108;11.448;2022-07-29T09:40:23;1.83;;;1.50;;
19812;SDS011;10066;48.108;11.448;2022-07-29T09:42:51;3.30;;;1.63;;
19812;SDS011;10066;48.108;11.448;2022-07-29T09:45:27;3.58;;;1.65;;
19812;SDS011;10066;48.108;11.448;2022-07-29T09:47:55;2.92;;;1.70;;
19812;SDS011;10066;48.108;11.448;2022-07-29T09:50:37;3.63;;;1.80;;
19812;SDS011;10066;48.108;11.448;2022-07-29T09:53:06;8.93;;;1.90;;
19812;SDS011;10066;48.108;11.448;2022-07-29T09:55:45;3.33;;;1.57;;
19812;SDS011;10066;48.108;11.448;2022-07-29T09:58:16;3.45;;;1.58;;
19812;SDS011;10066;48.108;11.448;2022-07-29T10:00:43;1.88;;;1.60;;
19812;SDS011;10066;48.108;11.448;2022-07-29T10:03:13;2.45;;;1.60;;
19812;SDS011;10066;48.108;11.448;2022-07-29T10:05:41;4.68;;;1.60;;
19812;SDS011;10066;48.108;11.448;2022-07-29T10:08:09;2.10;;;1.58;;
19812;SDS011;10066;48.108;11.448;2022-07-29T10:10:37;1.73;;;1.40;;
19812;SDS011;10066;48.108;11.448;2022-07-29T10:13:07;2.72;;;1.60;;
19812;SDS011;10066;48.108;11.448;2022-07-29T10:15:36;1.95;;;1.65;;
19812;SDS011;10066;48.108;11.448;2022-07-29T10:18:06;3.33;;;1.50;;
19812;SDS011;10066;48.108;11.448;2022-07-29T10:20:35;2.90;;;1.40;;
19812;SDS011;10066;48.108;11.448;2022-07-29T10:23:03;2.03;;;1.65;;
19812;SDS011;10066;48.108;11.448;2022-07-29T10:25:31;1.75;;;1.60;;
19812;SDS011;10066;48.108;11.448;2022-07-29T10:27:58;1.88;;;1.50;;
19812;SDS011;10066;48.108;11.448;2022-07-29T10:30:25;2.22;;;1.85;;
19812;SDS011;10066;48.108;11.448;2022-07-29T10:33:14;7.43;;;2.00;;
19812;SDS011;10066;48.108;11.448;2022-07-29T10:35:59;6.28;;;2.00;;
19812;SDS011;10066;48.108;11.448;2022-07-29T10:38:48;4.82;;;2.03;;
19812;SDS011;10066;48.108;11.448;2022-07-29T10:44:25;3.50;;;1.70;;
19812;SDS011;10066;48.108;11.448;2022-07-29T10:46:53;3.28;;;1.90;;
19812;SDS011;10066;48.108;11.448;2022-07-29T10:49:22;1.80;;;1.65;;
19812;SDS011;10066;48.108;11.448;2022-07-29T10:51:57;3.47;;;1.95;;
19812;SDS011;10066;48.108;11.448;2022-07-29T10:54:36;2.88;;;1.80;;
19812;SDS011;10066;48.108;11.448;2022-07-29T10:57:16;2.80;;;1.60;;
19812;SDS011;10066;48.108;11.448;2022-07-29T10:59:46;3.70;;;1.80;;
19812;SDS011;10066;48.108;11.448;2022-07-29T11:05:09;2.05;;;1.70;;
19812;SDS011;10066;48.108;11.448;2022-07-29T11:07:40;2.53;;;1.90;;
19812;SDS011;10066;48.108;11.448;2022-07-29T11:10:51;3.70;;;1.75;;
19812;SDS011;10066;48.108;11.448;2022-07-29T11:16:17;4.45;;;1.60;;
19812;SDS011;10066;48.108;11.448;2022-07-29T11:21:47;3.88;;;1.65;;
19812;SDS011;10066;48.108;11.448;2022-07-29T11:24:18;2.63;;;1.80;;
19812;SDS011;10066;48.108;11.448;2022-07-29T11:29:34;2.42;;;1.50;;
19812;SDS011;10066;48.108;11.448;2022-07-29T11:32:08;3.33;;;1.77;;
19812;SDS011;10066;48.108;11.448;2022-07-29T11:34:36;4.60;;;1.90;;
19812;SDS011;10066;48.108;11.448;2022-07-29T11:37:18;3.35;;;1.55;;
19812;SDS011;10066;48.108;11.448;2022-07-29T11:40:07;2.28;;;1.73;;
19812;SDS011;10066;48.108;11.448;2022-07-29T11:42:50;2.08;;;1.45;;
19812;SDS011;10066;48.108;11.448;2022-07-29T11:45:24;5.68;;;1.73;;
19812;SDS011;10066;48.108;11.448;2022-07-29T11:47:59;2.45;;;1.50;;
19812;SDS011;10066;48.108;11.448;2022-07-29T11:50:28;3.50;;;1.83;;
19812;SDS011;10066;48.108;11.448;2022-07-29T11:52:59;2.55;;;1.73;;
19812;SDS011;10066;48.108;11.448;2022-07-29T11:55:28;4.32;;;1.63;;
19812;SDS011;10066;48.108;11.448;2022-07-29T11:57:58;4.47;;;1.40;;
19812;SDS011;10066;48.108;11.448;2022-07-29T12:00:27;1.77;;;1.50;;
19812;SDS011;10066;48.108;11.448;2022-07-29T12:02:57;3.30;;;1.52;;
19812;SDS011;10066;48.108;11.448;2022-07-29T12:05:35;4.85;;;1.42;;
19812;SDS011;10066;48.108;11.448;2022-07-29T12:08:10;4.72;;;1.50;;
19812;SDS011;10066;48.108;11.448;2022-07-29T12:10:41;2.67;;;1.60;;
19812;SDS011;10066;48.108;11.448;2022-07-29T12:13:08;3.53;;;1.70;;
19812;SDS011;10066;48.108;11.448;2022-07-29T12:15:36;2.83;;;1.70;;
19812;SDS011;10066;48.108;11.448;2022-07-29T12:18:10;2.15;;;1.60;;
19812;SDS011;10066;48.108;11.448;2022-07-29T12:20:38;2.50;;;1.50;;
19812;SDS011;10066;48.108;11.448;2022-07-29T12:23:06;1.95;;;1.50;;
19812;SDS011;10066;48.108;11.448;2022-07-29T12:25:36;2.58;;;1.73;;
19812;SDS011;10066;48.108;11.448;2022-07-29T12:28:07;2.50;;;1.70;;
19812;SDS011;10066;48.108;11.448;2022-07-29T12:30:36;2.00;;;1.50;;
19812;SDS011;10066;48.108;11.448;2022-07-29T12:33:16;3.88;;;1.40;;
19812;SDS011;10066;48.108;11.448;2022-07-29T12:35:46;5.35;;;1.63;;
19812;SDS011;10066;48.108;11.448;2022-07-29T12:38:15;3.00;;;1.63;;
19812;SDS011;10066;48.108;11.448;2022-07-29T12:40:42;2.92;;;1.42;;
19812;SDS011;10066;48.108;11.448;2022-07-29T12:43:13;2.78;;;1.80;;
19812;SDS011;10066;48.108;11.448;2022-07-29T12:45:42;3.30;;;1.60;;
19812;SDS011;10066;48.108;11.448;2022-07-29T12:48:10;1.67;;;1.58;;
19812;SDS011;10066;48.108;11.448;2022-07-29T12:50:51;2.70;;;1.90;;
19812;SDS011;10066;48.108;11.448;2022-07-29T12:53:20;1.65;;;1.50;;
19812;SDS011;10066;48.108;11.448;2022-07-29T12:55:48;2.92;;;1.45;;
19812;SDS011;10066;48.108;11.448;2022-07-29T12:58:32;2.42;;;1.38;;
19812;SDS011;10066;48.108;11.448;2022-07-29T13:01:02;2.72;;;1.67;;
19812;SDS011;10066;48.108;11.448;2022-07-29T13:03:41;3.20;;;1.80;;
19812;SDS011;10066;48.108;11.448;2022-07-29T13:08:59;6.53;;;1.70;;
19812;SDS011;10066;48.108;11.448;2022-07-29T13:11:32;3.63;;;1.60;;
19812;SDS011;10066;48.108;11.448;2022-07-29T13:14:01;4.38;;;1.80;;
19812;SDS011;10066;48.108;11.448;2022-07-29T13:16:28;2.08;;;1.58;;
19812;SDS011;10066;48.108;11.448;2022-07-29T13:19:05;3.30;;;1.42;;
19812;SDS011;10066;48.108;11.448;2022-07-29T13:21:36;2.75;;;1.63;;
19812;SDS011;10066;48.108;11.448;2022-07-29T13:24:05;2.33;;;1.60;;
19812;SDS011;10066;48.108;11.448;2022-07-29T13:26:33;1.60;;;1.23;;
19812;SDS011;10066;48.108;11.448;2022-07-29T13:29:01;2.53;;;1.63;;
19812;SDS011;10066;48.108;11.448;2022-07-29T13:31:28;4.10;;;1.87;;
19812;SDS011;10066;48.108;11.448;2022-07-29T13:33:57;3.97;;;2.03;;
19812;SDS011;10066;48.108;11.448;2022-07-29T13:36:24;3.50;;;1.60;;
19812;SDS011;10066;48.108;11.448;2022-07-29T13:38:51;2.83;;;1.73;;
19812;SDS011;10066;48.108;11.448;2022-07-29T13:41:18;3.30;;;1.83;;
19812;SDS011;10066;48.108;11.448;2022-07-29T13:43:45;2.17;;;1.63;;
19812;SDS011;10066;48.108;11.448;2022-07-29T13:46:14;3.70;;;1.80;;
19812;SDS011;10066;48.108;11.448;2022-07-29T13:48:41;3.40;;;1.80;;
19812;SDS011;10066;48.108;11.448;2022-07-29T13:51:08;6.87;;;1.80;;
19812;SDS011;10066;48.108;11.448;2022-07-29T13:53:35;5.43;;;2.17;;
19812;SDS011;10066;48.108;11.448;2022-07-29T13:56:02;1.90;;;1.70;;
19812;SDS011;10066;48.108;11.448;2022-07-29T13:58:30;4.07;;;1.73;;
19812;SDS011;10066;48.108;11.448;2022-07-29T14:00:57;4.43;;;1.80;;
19812;SDS011;10066;48.108;11.448;2022-07-29T14:03:26;4.33;;;1.70;;
19812;SDS011;10066;48.108;11.448;2022-07-29T14:05:54;4.67;;;1.80;;
19812;SDS011;10066;48.108;11.448;2022-07-29T14:08:21;3.87;;;1.73;;
19812;SDS011;10066;48.108;11.448;2022-07-29T14:10:49;3.53;;;1.93;;
19812;SDS011;10066;48.108;11.448;2022-07-29T14:13:16;2.83;;;1.67;;
19812;SDS011;10066;48.108;11.448;2022-07-29T14:15:43;3.43;;;1.83;;
19812;SDS011;10066;48.108;11.448;2022-07-29T14:18:10;3.90;;;1.90;;
19812;SDS011;10066;48.108;11.448;2022-07-29T14:20:38;2.05;;;1.77;;
19812;SDS011;10066;48.108;11.448;2022-07-29T14:23:05;1.97;;;1.77;;
19812;SDS011;10066;48.108;11.448;2022-07-29T14:25:32;2.93;;;1.63;;
19812;SDS011;10066;48.108;11.448;2022-07-29T14:27:59;4.28;;;1.63;;
19812;SDS011;10066;48.108;11.448;2022-07-29T14:30:25;2.50;;;1.85;;
19812;SDS011;10066;48.108;11.448;2022-07-29T14:32:53;2.83;;;1.50;;
19812;SDS011;10066;48.108;11.448;2022-07-29T14:35:20;3.05;;;1.90;;
19812;SDS011;10066;48.108;11.448;2022-07-29T14:37:49;4.57;;;1.87;;
19812;SDS011;10066;48.108;11.448;2022-07-29T14:40:16;2.00;;;1.40;;
19812;SDS011;10066;48.108;11.448;2022-07-29T14:42:43;4.43;;;1.73;;
19812;SDS011;10066;48.108;11.448;2022-07-29T14:45:10;2.05;;;1.50;;
19812;SDS011;10066;48.108;11.448;2022-07-29T14:47:37;2.77;;;1.73;;
19812;SDS011;10066;48.108;11.448;2022-07-29T14:50:05;3.23;;;1.57;;
19812;SDS011;10066;48.108;11.448;2022-07-29T14:52:33;1.90;;;1.60;;
19812;SDS011;10066;48.108;11.448;2022-07-29T14:55:02;3.25;;;1.50;;
19812;SDS011;10066;48.108;11.448;2022-07-29T14:57:30;1.48;;;1.35;;
19812;SDS011;10066;48.108;11.448;2022-07-29T14:59:57;2.80;;;1.50;;
19812;SDS011;10066;48.108;11.448;2022-07-29T15:02:24;3.20;;;1.53;;
19812;SDS011;10066;48.108;11.448;2022-07-29T15:04:51;4.40;;;1.87;;
19812;SDS011;10066;48.108;11.448;2022-07-29T15:07:18;1.70;;;1.53;;